Time;durP1;ratioP1;P1;durP2;ratioP2;P2;SDS_P1;SDS_P2;PMS_P1;PMS_P2;Temp;Humidity;BMP_temperature;BMP_pressure;BME280_temperature;BME280_humidity;BME280_pressure;Samples;Min_cycle;Max_cycle;Signal;HPM_P1;HPM_P2
2023/09/29 00:03:54;;;;;;;1.23;1.00;;;;;;;19.80;57.50;96964.13;10288246;28;20065;-27
2023/09/29 00:08:55;;;;;;;1.80;1.27;;;;;;;19.80;57.36;96966.69;10286585;28;20420;-26
2023/09/29 00:13:55;;;;;;;1.83;1.27;;;;;;;19.79;57.23;96962.44;10284733;28;20039;-27
2023/09/29 00:18:56;;;;;;;1.93;1.30;;;;;;;19.79;57.28;96962.44;10294562;28;20302;-27
2023/09/29 00:23:56;;;;;;;1.75;1.08;;;;;;;19.80;57.31;96969.22;10284803;28;20042;-27
2023/09/29 00:28:59;;;;;;;1.70;1.10;;;;;;;19.80;57.37;96964.13;10285208;28;20046;-27
2023/09/29 00:33:59;;;;;;;1.38;1.15;;;;;;;19.78;57.45;96965.84;10300646;28;20038;-28
2023/09/29 00:39:00;;;;;;;1.42;1.08;;;;;;;19.79;57.17;96967.53;10280132;28;20497;-26
2023/09/29 00:44:01;;;;;;;1.50;1.40;;;;;;;19.79;57.35;96957.38;10290580;28;20053;-27
2023/09/29 00:49:03;;;;;;;2.40;1.30;;;;;;;19.80;57.45;96956.53;10282369;28;20210;-26
2023/09/29 00:54:08;;;;;;;1.92;1.10;;;;;;;19.78;57.46;96959.09;10295596;28;20042;-27
2023/09/29 00:59:09;;;;;;;1.20;1.00;;;;;;;19.77;57.50;96964.97;10276967;28;20027;-27
2023/09/29 01:04:10;;;;;;;1.85;1.00;;;;;;;19.78;57.17;96959.09;10282884;28;20030;-27
2023/09/29 01:09:11;;;;;;;1.40;1.02;;;;;;;19.79;57.32;96952.28;10284642;28;20031;-28
2023/09/29 01:14:11;;;;;;;1.10;1.00;;;;;;;19.77;57.26;96959.06;10282399;28;20041;-26
2023/09/29 01:19:13;;;;;;;1.75;1.15;;;;;;;19.78;57.28;96953.13;10282742;28;20671;-27
2023/09/29 01:24:13;;;;;;;1.27;1.00;;;;;;;19.77;57.17;96944.66;10284190;28;20039;-27
2023/09/29 01:29:15;;;;;;;1.90;1.10;;;;;;;19.78;57.16;96945.53;10282997;28;20441;-27
2023/09/29 01:34:15;;;;;;;1.42;1.23;;;;;;;19.77;57.52;96936.22;10284899;28;20032;-27
2023/09/29 01:39:16;;;;;;;0.80;0.80;;;;;;;19.78;57.26;96946.38;10293781;28;20409;-27
2023/09/29 01:44:16;;;;;;;1.80;1.10;;;;;;;19.78;56.93;96932.81;10284685;28;20038;-27
2023/09/29 01:49:17;;;;;;;2.35;1.17;;;;;;;19.76;57.10;96932.81;10296940;28;20438;-26
2023/09/29 01:54:17;;;;;;;2.10;1.10;;;;;;;19.78;57.48;96940.44;10288831;28;20482;-27
2023/09/29 01:59:18;;;;;;;1.88;1.08;;;;;;;19.76;57.14;96934.53;10287407;28;20321;-26
2023/09/29 02:04:18;;;;;;;1.33;1.13;;;;;;;19.76;57.02;96925.19;10289701;28;20094;-26
2023/09/29 02:09:18;;;;;;;1.07;0.90;;;;;;;19.77;57.10;96926.03;10287304;28;20062;-27
2023/09/29 02:14:19;;;;;;;1.50;1.00;;;;;;;19.76;57.17;96926.91;10285055;28;20041;-26
2023/09/29 02:19:20;;;;;;;1.33;0.93;;;;;;;19.73;57.08;96911.63;10302287;28;20042;-26
2023/09/29 02:24:20;;;;;;;1.05;0.95;;;;;;;19.77;57.17;96923.50;10288485;28;20034;-27
2023/09/29 02:29:21;;;;;;;1.50;1.00;;;;;;;19.78;57.05;96925.19;10285973;28;20440;-27
2023/09/29 02:34:23;;;;;;;1.58;1.10;;;;;;;19.76;57.25;96917.56;10288246;28;20548;-26
2023/09/29 02:39:23;;;;;;;1.13;1.00;;;;;;;19.76;57.24;96912.47;10287917;28;20042;-26
2023/09/29 02:44:26;;;;;;;1.88;1.10;;;;;;;19.77;57.17;96913.34;10287457;28;20500;-27
2023/09/29 02:49:30;;;;;;;1.17;1.08;;;;;;;19.76;57.30;96916.75;10287778;28;20109;-27
2023/09/29 02:54:31;;;;;;;1.13;0.90;;;;;;;19.76;57.10;96914.19;10277820;28;20059;-27
2023/09/29 02:59:33;;;;;;;3.15;1.02;;;;;;;19.72;56.94;96909.94;10287124;28;20065;-27
2023/09/29 03:04:35;;;;;;;1.25;0.90;;;;;;;19.77;56.91;96923.50;10288803;28;20379;-27
2023/09/29 03:09:36;;;;;;;0.90;0.70;;;;;;;19.75;57.23;96920.13;10289085;28;20039;-27
2023/09/29 03:14:37;;;;;;;1.20;0.80;;;;;;;19.77;57.25;96918.44;10286930;28;20038;-27
2023/09/29 03:19:37;;;;;;;0.93;0.82;;;;;;;19.76;57.10;96916.75;10287331;28;20039;-27
2023/09/29 03:24:37;;;;;;;1.10;0.90;;;;;;;19.76;57.21;96916.75;10281324;28;20453;-27
2023/09/29 03:29:38;;;;;;;1.67;1.10;;;;;;;19.76;57.13;96922.66;10292907;28;20132;-26
2023/09/29 03:34:38;;;;;;;1.00;0.90;;;;;;;19.76;57.12;96922.66;10286645;28;20072;-26
2023/09/29 03:39:38;;;;;;;2.28;1.52;;;;;;;19.76;56.97;96932.81;10278658;28;20046;-27
2023/09/29 03:44:39;;;;;;;1.20;0.93;;;;;;;19.76;57.44;96937.88;10286370;28;20034;-26
2023/09/29 03:49:39;;;;;;;1.10;1.00;;;;;;;19.77;57.26;96938.75;10270351;28;20462;-27
2023/09/29 03:54:39;;;;;;;1.03;0.90;;;;;;;19.79;57.62;96940.44;10278485;28;20520;-26
2023/09/29 03:59:40;;;;;;;0.83;0.70;;;;;;;19.86;57.13;96953.97;10282391;28;20070;-27
2023/09/29 04:04:40;;;;;;;2.97;1.23;;;;;;;19.83;57.25;96939.56;10276708;28;20039;-26
2023/09/29 04:09:41;;;;;;;1.23;1.02;;;;;;;19.87;56.95;96940.41;10282486;28;20030;-26
2023/09/29 04:14:41;;;;;;;1.05;0.93;;;;;;;19.93;57.30;96943.78;10286279;28;20027;-26
2023/09/29 04:19:41;;;;;;;1.50;1.30;;;;;;;19.96;57.36;96937.84;10289394;28;20062;-27
2023/09/29 04:24:42;;;;;;;2.70;1.63;;;;;;;19.97;57.50;96935.31;10272384;28;20031;-26
2023/09/29 04:29:42;;;;;;;1.33;0.90;;;;;;;19.97;57.45;96948.03;10277090;28;20080;-26
2023/09/29 04:34:43;;;;;;;1.40;1.10;;;;;;;19.99;57.53;96948.00;10302519;28;20049;-26
2023/09/29 04:39:43;;;;;;;1.10;0.90;;;;;;;19.99;57.28;96960.72;10284261;28;20478;-27
2023/09/29 04:44:44;;;;;;;1.43;1.27;;;;;;;19.99;57.22;96955.63;10282438;28;20039;-27
2023/09/29 04:49:45;;;;;;;3.47;1.52;;;;;;;19.98;59.08;96959.03;10286554;28;20031;-27
2023/09/29 04:54:45;;;;;;;3.73;1.87;;;;;;;19.95;58.62;96966.66;10291326;28;20485;-26
2023/09/29 04:59:45;;;;;;;2.43;2.10;;;;;;;19.95;58.08;96959.03;10281113;28;20109;-26
2023/09/29 05:04:46;;;;;;;14.43;3.43;;;;;;;19.93;58.70;96964.13;10278558;28;20383;-26
2023/09/29 05:09:46;;;;;;;2.20;1.43;;;;;;;19.98;57.86;96954.78;10286474;28;20033;-26
2023/09/29 05:14:47;;;;;;;5.93;1.47;;;;;;;19.98;57.76;96961.56;10285573;28;20038;-26
2023/09/29 05:19:47;;;;;;;7.30;2.03;;;;;;;19.98;57.82;96969.19;10284463;28;20039;-27
2023/09/29 05:24:49;;;;;;;2.00;1.50;;;;;;;19.98;57.77;96981.91;10284174;28;20046;-27
2023/09/29 05:29:49;;;;;;;7.75;2.10;;;;;;;19.93;57.89;96971.75;10286331;28;20344;-25
2023/09/29 05:34:51;;;;;;;4.73;1.83;;;;;;;19.89;57.50;96976.81;10279670;28;20559;-25
2023/09/29 05:39:51;;;;;;;3.15;1.70;;;;;;;19.94;57.55;96980.22;10280553;28;20038;-27
2023/09/29 05:44:52;;;;;;;5.85;1.85;;;;;;;19.95;57.58;96985.31;10286121;28;20038;-26
2023/09/29 05:49:52;;;;;;;1.73;1.20;;;;;;;19.95;57.55;96990.41;10291993;28;20034;-26
2023/09/29 05:54:52;;;;;;;6.77;1.60;;;;;;;19.96;57.54;96996.31;10302078;28;20297;-27
2023/09/29 05:59:54;;;;;;;5.30;1.30;;;;;;;19.96;57.39;97006.47;10305724;28;20054;-27
2023/09/29 06:04:55;;;;;;;7.57;1.70;;;;;;;19.96;57.67;96996.31;10300073;28;20038;-26
2023/09/29 06:09:55;;;;;;;3.85;1.65;;;;;;;19.91;57.48;96990.41;10304677;28;20396;-27
2023/09/29 06:14:56;;;;;;;5.27;1.50;;;;;;;19.95;57.48;97008.19;10303516;28;20485;-27
2023/09/29 06:19:57;;;;;;;3.60;1.33;;;;;;;19.95;57.39;97009.88;10305273;28;20398;-26
2023/09/29 06:24:57;;;;;;;2.90;1.27;;;;;;;19.95;57.33;97014.94;10303190;28;20042;-26
2023/09/29 06:29:58;;;;;;;4.00;2.07;;;;;;;19.94;57.59;97023.41;10308852;28;20031;-27
2023/09/29 06:34:58;;;;;;;4.05;1.45;;;;;;;19.94;57.54;97026.78;10304257;28;20530;-28
2023/09/29 06:39:58;;;;;;;2.90;1.53;;;;;;;19.93;57.56;97026.81;10301897;28;20034;-26
2023/09/29 06:44:59;;;;;;;2.80;1.47;;;;;;;19.94;57.41;97033.59;10311227;28;20038;-27
2023/09/29 06:50:00;;;;;;;2.43;1.37;;;;;;;19.94;57.47;97044.59;10308145;28;20030;-26
2023/09/29 06:55:00;;;;;;;1.95;1.23;;;;;;;19.93;57.42;97052.22;10306395;28;20297;-27
2023/09/29 07:00:00;;;;;;;2.47;1.40;;;;;;;19.93;57.39;97049.69;10306429;28;20034;-27
2023/09/29 07:05:01;;;;;;;2.23;1.17;;;;;;;19.92;57.39;97053.91;10295161;28;20030;-27
2023/09/29 07:10:01;;;;;;;1.60;1.50;;;;;;;19.91;57.62;97054.75;10302532;28;20701;-26
2023/09/29 07:15:03;;;;;;;2.90;1.73;;;;;;;19.93;57.77;97049.69;10287438;28;20297;-26
2023/09/29 07:20:04;;;;;;;5.40;1.20;;;;;;;19.96;57.51;97048.00;10301172;28;20505;-27
2023/09/29 07:25:05;;;;;;;1.77;1.42;;;;;;;19.98;57.74;97053.91;10300303;28;20030;-27
2023/09/29 07:30:08;;;;;;;1.98;1.10;;;;;;;19.98;57.59;97064.09;10296050;28;20030;-27
2023/09/29 07:35:09;;;;;;;2.75;1.25;;;;;;;19.97;57.35;97054.78;10302928;28;20498;-25
2023/09/29 07:40:09;;;;;;;2.67;1.15;;;;;;;19.96;57.44;97057.31;10297675;28;20050;-26
2023/09/29 07:45:10;;;;;;;2.88;1.05;;;;;;;19.95;58.43;97059.00;10302900;28;20026;-26
2023/09/29 07:50:10;;;;;;;9.23;2.03;;;;;;;19.96;59.24;97068.31;10300399;28;20027;-27
2023/09/29 07:55:13;;;;;;;13.50;2.65;;;;;;;20.00;62.07;97070.00;10296961;28;20027;-26
2023/09/29 08:00:16;;;;;;;8.55;2.33;;;;;;;19.95;60.20;97059.00;10297557;28;20035;-26
2023/09/29 08:05:17;;;;;;;6.47;1.80;;;;;;;19.98;59.75;97061.53;10301882;28;20049;-26
2023/09/29 08:10:17;;;;;;;5.80;2.13;;;;;;;19.96;59.17;97064.91;10294437;28;20037;-27
2023/09/29 08:15:20;;;;;;;6.95;2.03;;;;;;;19.95;59.35;97058.16;10299534;28;20047;-27
2023/09/29 08:20:21;;;;;;;3.97;1.80;;;;;;;19.94;58.92;97059.84;10300305;28;20030;-25
2023/09/29 08:25:21;;;;;;;11.93;1.90;;;;;;;19.96;58.93;97057.31;10297759;28;20254;-26
2023/09/29 08:30:21;;;;;;;9.13;1.77;;;;;;;19.96;58.94;97057.31;10306985;28;20117;-27
2023/09/29 08:35:22;;;;;;;8.53;2.10;;;;;;;19.96;58.78;97059.84;10303570;28;20420;-26
2023/09/29 08:40:22;;;;;;;6.27;2.07;;;;;;;19.94;58.94;97059.84;10300033;28;20034;-26
2023/09/29 08:45:27;;;;;;;4.88;1.65;;;;;;;19.97;58.64;97069.16;10304804;28;20041;-26
2023/09/29 08:50:27;;;;;;;6.63;1.73;;;;;;;19.97;58.70;97070.00;10297449;28;20050;-27
2023/09/29 08:55:29;;;;;;;2.83;1.50;;;;;;;19.98;58.71;97071.72;10303544;28;20042;-27
2023/09/29 09:00:31;;;;;;;3.03;1.95;;;;;;;19.99;58.85;97068.31;10296214;28;20100;-27
2023/09/29 09:05:31;;;;;;;4.45;2.40;;;;;;;20.00;58.54;97064.09;10301797;28;20030;-27
2023/09/29 09:10:34;;;;;;;9.23;3.80;;;;;;;19.98;58.89;97050.50;10299416;28;20030;-26
2023/09/29 09:15:34;;;;;;;6.40;2.50;;;;;;;19.99;58.95;97058.16;10300857;28;20293;-27
2023/09/29 09:20:36;;;;;;;5.18;2.65;;;;;;;19.98;58.63;97056.47;10298046;28;20039;-27
2023/09/29 09:25:41;;;;;;;10.48;4.72;;;;;;;19.99;58.91;97052.19;10301368;28;20120;-25
2023/09/29 09:30:42;;;;;;;10.73;4.85;;;;;;;19.98;58.96;97060.69;10301197;28;20117;-27
2023/09/29 09:35:43;;;;;;;8.63;4.00;;;;;;;20.01;60.34;97060.69;10300693;28;20584;-26
2023/09/29 09:40:44;;;;;;;7.05;3.45;;;;;;;20.02;60.32;97062.38;10294380;28;20035;-26
2023/09/29 09:45:49;;;;;;;4.22;2.83;;;;;;;20.02;60.25;97068.31;10293724;28;20038;-27
2023/09/29 09:50:52;;;;;;;6.47;3.45;;;;;;;20.03;60.49;97071.69;10295111;28;20501;-27
2023/09/29 09:56:10;;;;;;;8.52;3.40;;;;;;;20.03;60.42;97081.88;10293777;28;20048;-26
2023/09/29 10:01:11;;;;;;;11.40;3.80;;;;;;;20.01;60.73;97081.84;10299141;28;20031;-27
2023/09/29 10:06:11;;;;;;;5.85;2.95;;;;;;;20.01;60.48;97086.13;10293494;28;20030;-26
2023/09/29 10:11:15;;;;;;;6.45;3.40;;;;;;;20.00;60.40;97086.97;10299848;28;20031;-26
2023/09/29 10:16:23;;;;;;;4.35;2.75;;;;;;;19.99;60.33;97090.31;10307352;28;20507;-27
2023/09/29 10:21:25;;;;;;;3.92;2.83;;;;;;;19.98;60.18;97088.63;10298477;28;20085;-27
2023/09/29 10:26:26;;;;;;;3.75;2.67;;;;;;;19.98;60.71;97086.97;10296675;28;20038;-27
2023/09/29 10:31:27;;;;;;;3.47;2.75;;;;;;;19.95;60.41;97075.94;10303605;28;20390;-26
2023/09/29 10:36:30;;;;;;;7.97;3.05;;;;;;;19.99;60.64;97085.25;10297222;28;20502;-27
2023/09/29 10:41:33;;;;;;;6.00;2.85;;;;;;;20.00;60.50;97071.72;10294762;28;20035;-27
2023/09/29 10:46:34;;;;;;;5.40;2.70;;;;;;;19.99;60.35;97080.16;10293547;28;20038;-26
2023/09/29 10:51:36;;;;;;;7.00;3.00;;;;;;;19.99;60.61;97082.69;10292053;28;20042;-27
2023/09/29 10:56:37;;;;;;;7.85;2.72;;;;;;;20.00;60.71;97079.34;10286995;28;20034;-27
2023/09/29 11:01:37;;;;;;;3.50;2.03;;;;;;;19.98;60.76;97076.78;10274337;28;20043;-26
2023/09/29 11:06:49;;;;;;;7.87;2.50;;;;;;;19.99;60.67;97082.69;10288546;28;20161;-26
2023/09/29 11:11:51;;;;;;;5.97;3.15;;;;;;;19.98;60.65;97084.41;10276918;28;20301;-27
2023/09/29 11:16:58;;;;;;;4.25;2.00;;;;;;;19.99;60.44;97072.53;10290783;28;20038;-27
2023/09/29 11:22:02;;;;;;;7.28;2.65;;;;;;;20.00;60.58;97075.09;10290246;28;20046;-27
2023/09/29 11:27:05;;;;;;;8.93;2.53;;;;;;;20.00;60.79;97079.34;10293015;28;20080;-26
2023/09/29 11:32:05;;;;;;;5.00;2.40;;;;;;;19.99;60.45;97067.44;10300173;28;20038;-27
2023/09/29 11:37:06;;;;;;;6.50;2.87;;;;;;;19.98;60.85;97075.94;10293908;28;20031;-25
2023/09/29 11:42:07;;;;;;;4.18;2.45;;;;;;;19.98;60.37;97069.16;10291405;28;20301;-26
2023/09/29 11:47:07;;;;;;;6.30;2.27;;;;;;;19.99;60.66;97067.44;10300871;28;20034;-27
2023/09/29 11:52:10;;;;;;;4.47;2.37;;;;;;;19.99;60.48;97062.38;10292156;28;20290;-26
2023/09/29 11:57:10;;;;;;;12.90;2.85;;;;;;;19.99;60.22;97057.28;10294929;28;20035;-27
2023/09/29 12:02:10;;;;;;;4.00;2.17;;;;;;;19.97;60.39;97054.78;10301693;28;20050;-27
2023/09/29 12:07:11;;;;;;;3.70;2.23;;;;;;;19.99;60.40;97057.28;10297736;28;20040;-27
2023/09/29 12:12:12;;;;;;;7.30;2.27;;;;;;;20.00;60.36;97043.75;10288811;28;20493;-26
2023/09/29 12:17:13;;;;;;;6.65;2.15;;;;;;;19.96;60.20;97047.13;10293461;28;20035;-27
2023/09/29 12:22:14;;;;;;;5.22;2.53;;;;;;;19.99;60.20;97047.13;10288532;28;20031;-27
2023/09/29 12:27:14;;;;;;;6.15;2.40;;;;;;;20.01;60.36;97053.06;10292075;28;20486;-26
2023/09/29 12:32:14;;;;;;;8.67;2.53;;;;;;;20.00;60.86;97048.84;10294535;28;20089;-27
2023/09/29 12:37:15;;;;;;;8.20;2.43;;;;;;;20.05;60.40;97058.19;10293547;28;20023;-27
2023/09/29 12:42:15;;;;;;;4.17;2.03;;;;;;;20.02;60.08;97053.06;10293417;28;20057;-27
2023/09/29 12:47:15;;;;;;;3.03;2.00;;;;;;;19.98;59.91;97041.22;10295959;28;20030;-27
2023/09/29 12:52:16;;;;;;;10.20;2.87;;;;;;;20.02;60.70;97058.13;10293769;28;20668;-26
2023/09/29 12:57:18;;;;;;;5.82;2.70;;;;;;;20.01;60.78;97027.66;10291563;28;20062;-27
2023/09/29 13:02:20;;;;;;;7.68;2.70;;;;;;;20.05;61.90;97032.78;10295059;28;20038;-27
2023/09/29 13:07:20;;;;;;;4.72;2.17;;;;;;;20.05;59.88;97031.91;10291511;28;20593;-26
2023/09/29 13:12:20;;;;;;;5.17;2.47;;;;;;;20.02;60.04;97035.25;10288440;28;20146;-27
2023/09/29 13:17:21;;;;;;;5.97;3.10;;;;;;;20.02;60.16;97049.69;10293574;28;20026;-26
2023/09/29 13:22:21;;;;;;;5.20;4.10;;;;;;;20.00;60.18;97042.03;10292069;28;20343;-27
2023/09/29 13:27:22;;;;;;;7.33;3.27;;;;;;;20.01;60.29;97048.00;10291088;28;20296;-25
2023/09/29 13:32:22;;;;;;;6.72;3.47;;;;;;;20.01;59.90;97050.53;10295624;28;20489;-26
2023/09/29 13:37:22;;;;;;;5.57;2.93;;;;;;;20.01;59.94;97061.53;10298030;28;20111;-27
2023/09/29 13:42:23;;;;;;;4.70;2.93;;;;;;;20.02;59.74;97062.38;10300817;28;20053;-27
2023/09/29 13:47:26;;;;;;;12.85;3.78;;;;;;;20.01;59.93;97055.63;10301322;28;20030;-27
2023/09/29 13:52:27;;;;;;;4.53;2.67;;;;;;;20.00;59.91;97059.00;10290005;28;20037;-27
2023/09/29 13:57:28;;;;;;;3.65;2.60;;;;;;;20.00;59.74;97056.47;10299334;28;20729;-23
2023/09/29 14:02:28;;;;;;;4.45;2.67;;;;;;;20.01;59.70;97065.78;10300781;28;20039;-26
2023/09/29 14:07:28;;;;;;;3.93;3.00;;;;;;;20.01;60.01;97075.94;10301178;28;20045;-27
2023/09/29 14:12:29;;;;;;;5.23;2.60;;;;;;;20.01;59.98;97075.94;10295172;28;20065;-26
2023/09/29 14:17:31;;;;;;;6.20;2.03;;;;;;;20.02;59.94;97092.88;10298589;28;20042;-27
2023/09/29 14:22:32;;;;;;;7.82;2.85;;;;;;;20.02;60.88;97077.63;10290809;28;20493;-27
2023/09/29 14:27:32;;;;;;;9.13;2.33;;;;;;;20.02;60.80;97077.63;10291000;28;20031;-25
2023/09/29 14:32:34;;;;;;;11.07;2.95;;;;;;;20.06;60.82;97081.88;10297988;28;20412;-27
2023/09/29 14:37:35;;;;;;;10.77;3.17;;;;;;;20.07;60.65;97091.22;10295262;28;20106;-27
2023/09/29 14:42:35;;;;;;;6.07;2.40;;;;;;;20.09;60.59;97102.25;10292781;28;20379;-26
2023/09/29 14:47:35;;;;;;;6.50;2.50;;;;;;;20.14;60.72;97103.06;10289763;28;20158;-30
2023/09/29 14:52:36;;;;;;;4.53;2.20;;;;;;;20.21;60.86;97120.03;10290510;28;20042;-26
2023/09/29 14:57:36;;;;;;;3.70;2.30;;;;;;;20.26;60.56;97103.09;10294313;28;20050;-26
2023/09/29 15:02:37;;;;;;;4.10;2.27;;;;;;;20.26;60.74;97115.78;10294734;28;20528;-26
2023/09/29 15:07:37;;;;;;;6.30;2.60;;;;;;;20.26;60.91;97118.34;10297588;28;20501;-27
2023/09/29 15:12:37;;;;;;;4.93;2.93;;;;;;;20.23;60.99;97121.72;10289417;28;20303;-27
2023/09/29 15:17:38;;;;;;;2.87;2.33;;;;;;;20.25;60.65;97131.91;10296603;28;20820;-27
2023/09/29 15:22:38;;;;;;;4.57;2.47;;;;;;;20.24;60.89;97140.34;10294647;28;20038;-26
2023/09/29 15:27:40;;;;;;;4.63;2.83;;;;;;;20.23;60.73;97148.81;10290784;28;20468;-27
2023/09/29 15:32:41;;;;;;;5.57;3.00;;;;;;;20.19;60.82;97147.97;10293058;28;20072;-27
2023/09/29 15:37:42;;;;;;;5.43;3.10;;;;;;;20.21;60.72;97148.00;10288457;28;20053;-27
2023/09/29 15:42:44;;;;;;;4.47;2.80;;;;;;;20.21;60.63;97158.16;10290827;28;20038;-26
2023/09/29 15:47:47;;;;;;;6.05;2.80;;;;;;;20.20;60.66;97164.09;10294290;28;20030;-27
2023/09/29 15:52:49;;;;;;;5.70;3.15;;;;;;;20.21;60.49;97175.97;10292533;28;20086;-28
2023/09/29 15:57:50;;;;;;;4.28;2.83;;;;;;;20.19;60.49;97168.31;10290895;28;20105;-27
2023/09/29 16:02:50;;;;;;;6.47;2.60;;;;;;;20.19;60.45;97180.19;10292891;28;20443;-27
2023/09/29 16:07:50;;;;;;;7.90;4.45;;;;;;;20.19;60.30;97183.56;10287130;28;20417;-27
2023/09/29 16:12:51;;;;;;;6.07;2.73;;;;;;;20.20;60.55;97186.97;10282758;28;20039;-26
2023/09/29 16:17:51;;;;;;;4.20;2.60;;;;;;;20.17;60.35;97192.91;10289337;28;20042;-27
2023/09/29 16:22:51;;;;;;;3.97;2.70;;;;;;;20.17;60.29;97189.53;10292226;28;20421;-27
2023/09/29 16:27:52;;;;;;;3.80;2.73;;;;;;;20.17;60.22;97199.69;10281691;28;20433;-27
2023/09/29 16:32:53;;;;;;;4.63;2.90;;;;;;;20.16;60.13;97209.00;10287568;28;20035;-26
2023/09/29 16:37:53;;;;;;;5.38;2.95;;;;;;;20.15;60.00;97201.38;10282153;28;20043;-25
2023/09/29 16:42:54;;;;;;;4.57;3.27;;;;;;;20.19;60.39;97220.88;10282793;28;20035;-26
2023/09/29 16:47:54;;;;;;;13.53;7.63;;;;;;;20.27;60.93;97231.91;10279271;28;20038;-27
2023/09/29 16:52:54;;;;;;;9.90;4.33;;;;;;;20.37;60.86;97246.31;10270372;28;20086;-27
2023/09/29 16:57:55;;;;;;;10.57;4.87;;;;;;;20.55;60.94;97263.28;10278991;28;20273;-27
2023/09/29 17:02:55;;;;;;;14.47;5.50;;;;;;;20.43;60.75;97281.09;10284274;28;20045;-27
2023/09/29 17:07:56;;;;;;;18.92;8.48;;;;;;;20.34;61.14;97284.47;10279788;28;20624;-27
2023/09/29 17:12:57;;;;;;;11.27;4.82;;;;;;;20.29;60.53;97302.28;10278104;28;20492;-28
2023/09/29 17:17:57;;;;;;;12.97;5.77;;;;;;;20.44;60.85;97302.28;10278518;28;20130;-27
2023/09/29 17:22:57;;;;;;;14.57;6.13;;;;;;;20.35;60.66;97304.81;10281376;28;20041;-27
2023/09/29 17:27:58;;;;;;;23.33;9.10;;;;;;;20.37;61.59;97299.72;10272378;28;20297;-27
2023/09/29 17:32:58;;;;;;;13.83;7.93;;;;;;;20.29;60.49;97316.66;10283358;28;20050;-26
2023/09/29 17:37:58;;;;;;;12.93;6.30;;;;;;;20.26;60.35;97306.50;10279978;28;20049;-27
2023/09/29 17:42:59;;;;;;;12.18;6.50;;;;;;;20.24;60.30;97303.09;10277758;28;20051;-27
2023/09/29 17:48:00;;;;;;;11.52;6.15;;;;;;;20.23;60.39;97306.47;10283589;28;20478;-27
2023/09/29 17:53:00;;;;;;;13.80;6.68;;;;;;;20.23;60.25;97326.81;10282166;28;20070;-27
2023/09/29 17:58:01;;;;;;;10.10;6.40;;;;;;;20.20;60.26;97326.81;10279242;28;20034;-27
2023/09/29 18:03:01;;;;;;;17.35;7.22;;;;;;;20.20;60.16;97345.47;10282595;28;20046;-27
2023/09/29 18:08:02;;;;;;;12.43;6.70;;;;;;;20.19;60.37;97355.63;10280577;28;20039;-29
2023/09/29 18:13:02;;;;;;;10.25;6.80;;;;;;;20.20;60.11;97357.34;10275186;28;20039;-27
2023/09/29 18:18:03;;;;;;;9.60;6.18;;;;;;;20.18;60.08;97359.03;10281008;28;20034;-26
2023/09/29 18:23:03;;;;;;;12.18;6.90;;;;;;;20.17;60.09;97352.25;10287656;28;20066;-27
2023/09/29 18:28:04;;;;;;;10.70;6.25;;;;;;;20.17;60.12;97358.16;10280534;28;20081;-27
2023/09/29 18:33:05;;;;;;;11.90;6.85;;;;;;;20.16;59.95;97366.63;10288186;28;20038;-27
2023/09/29 18:38:05;;;;;;;17.33;7.00;;;;;;;20.29;61.03;97365.84;10272778;28;20983;-27
2023/09/29 18:43:05;;;;;;;19.48;8.82;;;;;;;20.30;60.90;97374.31;10287114;28;20551;-27
2023/09/29 18:48:06;;;;;;;12.88;6.20;;;;;;;20.23;60.07;97385.31;10287038;28;20041;-27
2023/09/29 18:53:07;;;;;;;26.67;11.90;;;;;;;20.35;61.25;97387.91;10281719;28;20042;-26
2023/09/29 18:58:08;;;;;;;14.17;7.90;;;;;;;20.23;60.67;97387.84;10284341;28;20045;-25
2023/09/29 19:03:08;;;;;;;17.38;9.85;;;;;;;20.44;61.33;97392.16;10285587;28;20305;-27
2023/09/29 19:08:09;;;;;;;26.17;12.40;;;;;;;20.36;61.01;97384.50;10289859;28;20058;-27
2023/09/29 19:13:11;;;;;;;14.15;7.90;;;;;;;20.20;60.28;97383.63;10279263;28;20049;-27
2023/09/29 19:18:12;;;;;;;18.15;7.88;;;;;;;20.23;60.05;97413.28;10285167;28;20109;-27
2023/09/29 19:23:13;;;;;;;27.05;10.95;;;;;;;20.28;61.62;97426.88;10281668;28;20034;-27
2023/09/29 19:28:14;;;;;;;20.77;7.80;;;;;;;20.28;60.07;97432.78;10284827;28;20027;-27
2023/09/29 19:33:15;;;;;;;21.08;10.73;;;;;;;20.42;61.37;97440.50;10302391;28;20500;-27
2023/09/29 19:38:15;;;;;;;15.17;7.77;;;;;;;20.38;60.07;97461.66;10286087;28;20031;-27
2023/09/29 19:43:18;;;;;;;16.30;8.57;;;;;;;20.36;60.45;97458.25;10281632;28;20409;-26
2023/09/29 19:48:20;;;;;;;13.80;8.00;;;;;;;20.35;59.89;97466.75;10305163;28;20034;-25
2023/09/29 19:53:20;;;;;;;14.40;7.78;;;;;;;20.36;59.84;97450.63;10293406;28;20034;-26
2023/09/29 19:58:21;;;;;;;18.93;7.93;;;;;;;20.34;59.94;97435.34;10295777;28;20035;-27
2023/09/29 20:03:21;;;;;;;12.83;7.80;;;;;;;20.33;59.93;97440.47;10305726;28;20041;-26
2023/09/29 20:08:26;;;;;;;14.20;7.30;;;;;;;20.27;59.87;97438.72;10301332;28;20397;-27
2023/09/29 20:13:27;;;;;;;11.90;7.15;;;;;;;20.32;59.81;97442.16;10291390;28;20085;-26
2023/09/29 20:18:28;;;;;;;13.70;7.28;;;;;;;20.33;59.87;97458.25;10304555;28;20049;-27
2023/09/29 20:23:29;;;;;;;11.77;7.05;;;;;;;20.32;59.68;97459.09;10302774;28;20049;-27
2023/09/29 20:28:29;;;;;;;13.13;7.93;;;;;;;20.33;59.70;97470.97;10289115;28;20149;-27
2023/09/29 20:33:29;;;;;;;14.63;7.50;;;;;;;20.32;60.20;97462.50;10295977;28;20046;-26
2023/09/29 20:38:30;;;;;;;11.93;6.67;;;;;;;20.31;59.44;97459.94;10303187;28;20325;-28
2023/09/29 20:43:30;;;;;;;15.57;7.40;;;;;;;20.32;59.66;97459.09;10298881;28;20792;-27
2023/09/29 20:48:30;;;;;;;13.73;6.87;;;;;;;20.32;59.43;97470.13;10305399;28;20308;-27
2023/09/29 20:53:31;;;;;;;13.93;6.77;;;;;;;20.32;59.62;97471.78;10300842;28;20042;-27
2023/09/29 20:58:32;;;;;;;12.93;6.90;;;;;;;20.31;59.69;97482.81;10285778;28;20042;-26
2023/09/29 21:03:33;;;;;;;10.95;6.45;;;;;;;20.33;59.77;97497.25;10299250;28;20083;-26
2023/09/29 21:08:34;;;;;;;12.63;7.85;;;;;;;20.33;59.85;97506.59;10303688;28;20157;-25
2023/09/29 21:13:34;;;;;;;13.37;6.37;;;;;;;20.31;59.68;97501.47;10290856;28;20087;-27
2023/09/29 21:18:35;;;;;;;10.70;6.00;;;;;;;20.28;59.59;97492.97;10312041;28;20303;-26
2023/09/29 21:23:35;;;;;;;9.38;5.82;;;;;;;20.30;59.56;97481.97;10290804;28;20035;-27
2023/09/29 21:28:37;;;;;;;9.00;5.83;;;;;;;20.30;59.37;97493.84;10286435;28;20034;-26
2023/09/29 21:33:38;;;;;;;12.43;5.95;;;;;;;20.28;59.50;97504.00;10300312;28;20290;-27
2023/09/29 21:38:38;;;;;;;12.53;6.03;;;;;;;20.28;59.48;97498.06;10293334;28;20501;-26
2023/09/29 21:43:38;;;;;;;10.70;6.00;;;;;;;20.28;59.48;97509.06;10297584;28;20305;-27
2023/09/29 21:48:39;;;;;;;10.50;5.88;;;;;;;20.25;59.48;97506.53;10291379;28;20030;-27
2023/09/29 21:53:39;;;;;;;10.43;5.70;;;;;;;20.26;59.33;97499.75;10294760;28;20049;-26
2023/09/29 21:58:39;;;;;;;9.23;5.93;;;;;;;20.25;59.50;97498.06;10304552;28;20049;-27
2023/09/29 22:03:40;;;;;;;9.07;5.40;;;;;;;20.19;59.29;97503.09;10296647;28;20031;-26
2023/09/29 22:08:40;;;;;;;6.63;4.67;;;;;;;20.25;59.22;97503.16;10306164;28;20035;-27
2023/09/29 22:13:41;;;;;;;8.07;4.53;;;;;;;20.25;59.13;97498.91;10291507;28;20044;-26
2023/09/29 22:18:41;;;;;;;7.95;4.75;;;;;;;20.25;59.25;97492.97;10288069;28;20382;-27
2023/09/29 22:23:42;;;;;;;8.77;6.13;;;;;;;20.24;59.15;97501.41;10305366;28;20038;-27
2023/09/29 22:28:42;;;;;;;7.97;4.67;;;;;;;20.25;59.23;97500.59;10284598;28;20294;-27
2023/09/29 22:33:42;;;;;;;8.13;4.83;;;;;;;20.22;59.24;97498.88;10289347;28;20440;-27
2023/09/29 22:38:43;;;;;;;8.07;5.17;;;;;;;20.22;59.07;97492.94;10291591;28;20309;-27
2023/09/29 22:43:43;;;;;;;7.53;4.37;;;;;;;20.25;59.15;97488.72;10291776;28;20089;-26
2023/09/29 22:48:43;;;;;;;5.87;3.87;;;;;;;20.25;59.21;97498.06;10306773;28;20038;-27
2023/09/29 22:53:44;;;;;;;6.80;5.00;;;;;;;20.27;59.25;97504.00;10308966;28;20030;-27
2023/09/29 22:58:44;;;;;;;8.83;4.37;;;;;;;20.24;59.16;97499.75;10299270;28;20046;-27
2023/09/29 23:03:45;;;;;;;6.40;4.05;;;;;;;20.24;59.17;97509.06;10299734;28;20492;-27
2023/09/29 23:08:46;;;;;;;5.97;3.80;;;;;;;20.23;59.02;97504.81;10304224;28;20069;-27
2023/09/29 23:13:47;;;;;;;6.90;4.03;;;;;;;20.24;58.96;97520.09;10303245;28;20037;-26
2023/09/29 23:18:47;;;;;;;6.68;3.88;;;;;;;20.23;58.90;97517.53;10310175;28;20031;-27